createdAt,value
2017-08-27T00:00:33.140Z,19.70
2017-08-27T00:03:00.756Z,19.90
2017-08-27T00:05:28.416Z,19.80
2017-08-27T00:07:56.024Z,19.70
2017-08-27T00:10:23.631Z,19.70
2017-08-27T00:12:51.592Z,19.80
2017-08-27T00:15:19.259Z,19.70
2017-08-27T00:17:46.889Z,19.70
2017-08-27T00:20:14.489Z,20.10
2017-08-27T00:22:42.099Z,20.10
2017-08-27T00:25:09.825Z,20.10
2017-08-27T00:27:37.469Z,19.90
2017-08-27T00:30:05.085Z,19.80
2017-08-27T00:32:32.761Z,19.60
2017-08-27T00:35:00.425Z,19.60
2017-08-27T00:37:28.030Z,19.80
2017-08-27T00:39:55.641Z,19.70
2017-08-27T00:42:23.280Z,19.70
2017-08-27T00:44:50.907Z,19.90
2017-08-27T00:47:18.508Z,19.80
2017-08-27T00:49:46.152Z,19.80
2017-08-27T00:52:13.782Z,19.80
2017-08-27T00:54:41.414Z,19.80
2017-08-27T00:57:09.196Z,19.90
2017-08-27T00:59:36.807Z,20.00
2017-08-27T01:02:04.412Z,20.00
2017-08-27T01:04:32.059Z,20.10
2017-08-27T01:06:59.714Z,19.90
2017-08-27T01:09:27.342Z,19.70
2017-08-27T01:11:55.002Z,19.70
2017-08-27T01:14:22.606Z,19.60
2017-08-27T01:16:50.232Z,19.90
2017-08-27T01:19:17.884Z,19.60
2017-08-27T01:21:45.520Z,19.70
2017-08-27T01:24:13.146Z,19.60
2017-08-27T01:26:40.778Z,19.50
2017-08-27T01:29:08.572Z,19.50
2017-08-27T01:31:36.159Z,19.30
2017-08-27T01:34:03.775Z,19.50
2017-08-27T01:36:31.442Z,19.60
2017-08-27T01:38:59.050Z,19.50
2017-08-27T01:41:26.644Z,19.60
2017-08-27T01:43:54.276Z,19.30
2017-08-27T01:46:21.878Z,19.50
2017-08-27T01:48:49.495Z,19.30
2017-08-27T01:51:17.111Z,19.10
2017-08-27T01:53:44.767Z,19.30
2017-08-27T01:56:12.381Z,18.90
2017-08-27T01:58:39.987Z,18.70
2017-08-27T02:01:08.087Z,18.80
2017-08-27T02:03:36.070Z,18.40
2017-08-27T02:06:04.058Z,18.30
2017-08-27T02:08:31.695Z,18.40
2017-08-27T02:10:59.440Z,18.30
2017-08-27T02:13:27.043Z,18.10
2017-08-27T02:15:54.727Z,18.00
2017-08-27T02:18:22.359Z,17.90
2017-08-27T02:20:49.975Z,17.80
2017-08-27T02:23:17.691Z,17.90
2017-08-27T02:25:45.649Z,17.80
2017-08-27T02:28:13.280Z,17.70
2017-08-27T02:30:41.085Z,17.60
2017-08-27T02:33:08.916Z,17.50
2017-08-27T02:35:36.543Z,17.40
2017-08-27T02:38:04.476Z,17.40
2017-08-27T02:40:32.181Z,17.30
2017-08-27T02:42:59.813Z,17.40
2017-08-27T02:45:27.412Z,17.20
2017-08-27T02:47:55.049Z,17.20
2017-08-27T02:50:22.676Z,17.20
2017-08-27T02:52:50.320Z,17.20
2017-08-27T02:55:17.955Z,17.10
2017-08-27T02:57:45.577Z,16.90
2017-08-27T03:00:13.200Z,16.90
2017-08-27T03:02:40.817Z,16.90
2017-08-27T03:05:08.458Z,16.80
2017-08-27T03:07:36.094Z,16.80
2017-08-27T03:10:03.696Z,16.70
2017-08-27T03:12:31.313Z,16.70
2017-08-27T03:14:58.919Z,16.50
2017-08-27T03:17:26.581Z,16.60
2017-08-27T03:19:54.205Z,16.80
2017-08-27T03:22:22.717Z,16.90
2017-08-27T03:24:50.312Z,16.80
2017-08-27T03:27:17.944Z,16.90
2017-08-27T03:29:45.576Z,16.80
2017-08-27T03:32:13.195Z,16.70
2017-08-27T03:34:40.788Z,16.80
2017-08-27T03:37:08.457Z,16.50
2017-08-27T03:39:36.052Z,16.60
2017-08-27T03:42:03.649Z,16.50
2017-08-27T03:44:31.272Z,16.40
2017-08-27T03:46:58.866Z,16.60
2017-08-27T03:49:26.457Z,16.50
2017-08-27T03:51:54.084Z,16.40
2017-08-27T03:54:21.693Z,16.60
2017-08-27T03:56:49.283Z,16.50
2017-08-27T03:59:16.930Z,16.30
2017-08-27T04:01:44.524Z,16.10
2017-08-27T04:04:12.149Z,16.20
2017-08-27T04:06:39.759Z,16.20
2017-08-27T04:09:07.366Z,16.00
2017-08-27T04:11:34.975Z,16.20
2017-08-27T04:14:02.618Z,16.20
2017-08-27T04:16:30.231Z,16.20
2017-08-27T04:18:57.840Z,16.00
2017-08-27T04:21:25.446Z,16.10
2017-08-27T04:23:53.114Z,15.90
2017-08-27T04:26:20.788Z,16.00
2017-08-27T04:28:48.647Z,16.10
2017-08-27T04:31:16.276Z,16.20
2017-08-27T04:33:43.881Z,16.30
2017-08-27T04:36:11.530Z,16.00
2017-08-27T04:38:39.151Z,16.10
2017-08-27T04:41:06.765Z,16.20
2017-08-27T04:43:34.368Z,16.00
2017-08-27T04:46:02.005Z,16.20
2017-08-27T04:48:29.709Z,16.20
2017-08-27T04:50:57.307Z,16.00
2017-08-27T04:53:24.929Z,16.00
2017-08-27T04:55:52.543Z,16.20
2017-08-27T04:58:20.152Z,16.10
2017-08-27T05:00:47.785Z,16.30
2017-08-27T05:03:15.391Z,16.20
2017-08-27T05:05:43.003Z,16.50
2017-08-27T05:08:10.639Z,16.50
2017-08-27T05:10:38.237Z,16.50
2017-08-27T05:13:05.858Z,16.60
2017-08-27T05:15:33.500Z,16.80
2017-08-27T05:18:01.096Z,16.70
2017-08-27T05:20:28.970Z,16.90
2017-08-27T05:22:57.403Z,17.10
2017-08-27T05:25:25.006Z,17.10
2017-08-27T05:27:52.618Z,17.00
2017-08-27T05:30:20.240Z,17.10
2017-08-27T05:35:21.686Z,17.00
2017-08-27T05:37:49.305Z,17.00
2017-08-27T05:40:16.960Z,17.10
2017-08-27T05:42:44.619Z,17.30
2017-08-27T05:45:12.443Z,17.10
2017-08-27T05:47:40.054Z,17.40
2017-08-27T05:50:07.675Z,17.70
2017-08-27T05:52:35.287Z,17.60
2017-08-27T05:55:02.913Z,17.90
2017-08-27T05:57:30.539Z,17.90
2017-08-27T05:59:58.137Z,18.50
2017-08-27T06:02:25.736Z,18.30
2017-08-27T06:04:53.352Z,18.50
2017-08-27T06:07:20.974Z,18.50
2017-08-27T06:09:48.639Z,19.00
2017-08-27T06:12:16.239Z,19.50
2017-08-27T06:14:43.838Z,19.60
2017-08-27T06:17:11.551Z,19.70
2017-08-27T06:19:39.181Z,19.60
2017-08-27T06:22:06.774Z,19.80
2017-08-27T06:24:34.417Z,19.50
2017-08-27T06:27:02.054Z,19.50
2017-08-27T06:29:29.693Z,19.40
2017-08-27T06:31:57.316Z,19.20
2017-08-27T06:34:24.929Z,19.50
2017-08-27T06:36:52.544Z,19.70
2017-08-27T06:39:23.223Z,19.90
2017-08-27T06:41:50.833Z,20.00
2017-08-27T06:44:18.466Z,20.70
2017-08-27T06:46:46.168Z,20.90
2017-08-27T06:49:13.865Z,21.00
2017-08-27T06:51:41.473Z,21.40
2017-08-27T06:54:09.148Z,21.90
2017-08-27T06:59:10.549Z,22.30
2017-08-27T07:01:38.408Z,22.60
2017-08-27T07:04:06.020Z,22.60
2017-08-27T07:06:33.684Z,22.30
2017-08-27T07:09:01.286Z,22.40
2017-08-27T07:11:29.036Z,22.50
2017-08-27T07:13:56.653Z,22.80
2017-08-27T07:16:24.390Z,23.20
2017-08-27T07:18:52.003Z,23.50
2017-08-27T07:21:19.624Z,23.10
2017-08-27T07:23:47.275Z,23.30
2017-08-27T07:26:14.895Z,23.00
2017-08-27T07:28:42.525Z,23.00
2017-08-27T07:31:10.196Z,23.00
2017-08-27T07:33:37.849Z,23.10
2017-08-27T07:36:05.690Z,23.10
2017-08-27T07:38:33.299Z,23.30
2017-08-27T07:41:00.908Z,23.50
2017-08-27T07:43:28.745Z,23.50
2017-08-27T07:45:56.417Z,23.70
2017-08-27T07:48:24.025Z,23.80
2017-08-27T07:50:51.676Z,23.80
2017-08-27T07:53:19.292Z,23.90
2017-08-27T07:55:46.927Z,23.90
2017-08-27T07:58:14.551Z,23.90
2017-08-27T08:00:42.148Z,24.00
2017-08-27T08:03:09.868Z,24.10
2017-08-27T08:05:37.549Z,24.10
2017-08-27T08:08:05.162Z,24.10
2017-08-27T08:10:32.786Z,24.20
2017-08-27T08:13:00.419Z,24.20
2017-08-27T08:15:28.164Z,24.20
2017-08-27T08:17:55.768Z,24.40
2017-08-27T08:20:23.403Z,24.30
2017-08-27T08:22:51.019Z,24.40
2017-08-27T08:25:18.629Z,24.40
2017-08-27T08:27:46.318Z,24.40
2017-08-27T08:30:13.920Z,24.50
2017-08-27T08:32:41.500Z,24.60
2017-08-27T08:35:09.247Z,24.70
2017-08-27T08:37:36.869Z,24.80
2017-08-27T08:40:04.474Z,24.80
2017-08-27T08:42:32.099Z,24.80
2017-08-27T08:44:59.731Z,24.90
2017-08-27T08:47:27.421Z,24.90
2017-08-27T08:49:55.010Z,24.90
2017-08-27T08:52:22.665Z,25.10
2017-08-27T08:54:50.281Z,25.30
2017-08-27T08:57:17.940Z,25.30
2017-08-27T08:59:45.554Z,25.40
2017-08-27T09:02:13.189Z,25.30
2017-08-27T09:04:40.911Z,25.40
2017-08-27T09:07:08.625Z,25.50
2017-08-27T09:09:36.252Z,25.70
2017-08-27T09:12:03.875Z,26.00
2017-08-27T09:14:31.490Z,25.80
2017-08-27T09:16:59.089Z,25.80
2017-08-27T09:19:26.733Z,25.90
2017-08-27T09:24:27.125Z,26.00
2017-08-27T09:26:54.731Z,25.90
2017-08-27T09:29:22.338Z,25.90
2017-08-27T09:31:49.959Z,26.00
2017-08-27T09:34:17.558Z,26.10
2017-08-27T09:36:45.164Z,26.20
2017-08-27T09:39:12.863Z,26.20
2017-08-27T09:41:40.477Z,26.20
2017-08-27T09:44:08.299Z,26.30
2017-08-27T09:46:35.894Z,26.20
2017-08-27T09:49:03.477Z,26.20
2017-08-27T09:51:31.152Z,26.30
2017-08-27T09:53:58.738Z,26.50
2017-08-27T09:56:26.331Z,26.50
2017-08-27T09:58:53.963Z,26.50
2017-08-27T10:01:21.565Z,26.30
2017-08-27T10:03:49.173Z,26.50
2017-08-27T10:06:16.829Z,26.50
2017-08-27T10:08:44.439Z,26.70
2017-08-27T10:11:12.117Z,26.80
2017-08-27T10:13:39.828Z,27.00
2017-08-27T10:16:07.448Z,26.90
2017-08-27T10:18:36.127Z,27.10
2017-08-27T10:21:03.748Z,27.10
2017-08-27T10:23:31.379Z,27.20
2017-08-27T10:25:59.021Z,27.10
2017-08-27T10:28:26.615Z,27.10
2017-08-27T10:30:56.327Z,27.20
2017-08-27T10:33:24.817Z,27.20
2017-08-27T10:35:52.405Z,27.20
2017-08-27T10:38:19.977Z,27.10
2017-08-27T10:40:48.310Z,27.20
2017-08-27T10:43:15.895Z,27.40
2017-08-27T10:45:46.518Z,27.60
2017-08-27T10:48:14.703Z,27.60
2017-08-27T10:50:42.312Z,27.60
2017-08-27T10:53:10.065Z,27.60
2017-08-27T10:55:38.012Z,27.70
2017-08-27T10:58:05.660Z,27.80
2017-08-27T11:00:33.510Z,27.70
2017-08-27T11:03:01.164Z,27.70
2017-08-27T11:05:28.836Z,27.80
2017-08-27T11:07:59.836Z,27.80
2017-08-27T11:10:27.778Z,27.80
2017-08-27T11:12:55.632Z,27.80
2017-08-27T11:15:23.597Z,27.80
2017-08-27T11:17:51.232Z,27.80
2017-08-27T11:20:18.864Z,27.80
2017-08-27T11:22:47.200Z,27.80
2017-08-27T11:25:14.914Z,28.00
2017-08-27T11:27:42.535Z,27.90
2017-08-27T11:30:10.244Z,27.90
2017-08-27T11:32:38.139Z,27.90
2017-08-27T11:35:05.874Z,28.00
2017-08-27T11:37:33.506Z,28.00
2017-08-27T11:40:01.091Z,28.20
2017-08-27T11:42:28.748Z,28.40
2017-08-27T11:44:56.392Z,28.00
2017-08-27T11:47:24.076Z,28.00
2017-08-27T11:49:51.712Z,28.10
2017-08-27T11:52:19.343Z,28.40
2017-08-27T11:54:46.968Z,28.30
2017-08-27T11:57:14.581Z,28.50
2017-08-27T11:59:42.203Z,28.70
2017-08-27T12:02:09.880Z,28.80
2017-08-27T12:04:37.540Z,28.80
2017-08-27T12:07:06.844Z,28.80
2017-08-27T12:09:34.479Z,28.70
2017-08-27T12:12:02.546Z,28.90
2017-08-27T12:14:30.270Z,28.70
2017-08-27T12:16:58.933Z,28.40
2017-08-27T12:19:26.677Z,28.80
2017-08-27T12:21:54.313Z,28.70
2017-08-27T12:24:22.638Z,28.60
2017-08-27T12:26:50.260Z,28.50
2017-08-27T12:29:17.882Z,28.60
2017-08-27T12:31:47.186Z,28.60
2017-08-27T12:34:14.968Z,28.30
2017-08-27T12:36:42.634Z,28.10
2017-08-27T12:39:10.514Z,28.00
2017-08-27T12:41:38.259Z,28.00
2017-08-27T12:44:05.921Z,27.90
2017-08-27T12:46:33.530Z,27.60
2017-08-27T12:49:01.156Z,27.50
2017-08-27T12:51:28.841Z,27.70
2017-08-27T12:53:56.475Z,27.70
2017-08-27T12:56:24.084Z,27.60
2017-08-27T12:58:51.717Z,27.80
2017-08-27T13:01:19.366Z,27.80
2017-08-27T13:03:47.452Z,28.10
2017-08-27T13:06:15.336Z,28.40
2017-08-27T13:08:42.972Z,28.10
2017-08-27T13:11:10.612Z,28.20
2017-08-27T13:13:38.242Z,28.10
2017-08-27T13:16:05.872Z,28.40
2017-08-27T13:18:33.505Z,28.40
2017-08-27T13:21:04.943Z,28.30
2017-08-27T13:23:32.775Z,28.60
2017-08-27T13:26:00.416Z,28.70
2017-08-27T13:28:30.778Z,28.80
2017-08-27T13:30:58.456Z,29.00
2017-08-27T13:33:26.214Z,29.00
2017-08-27T13:35:54.061Z,28.50
2017-08-27T13:38:22.521Z,28.20
2017-08-27T13:40:50.205Z,28.00
2017-08-27T13:43:17.978Z,28.50
2017-08-27T13:45:45.619Z,28.50
2017-08-27T13:48:13.267Z,28.30
2017-08-27T13:50:40.910Z,28.40
2017-08-27T13:53:08.641Z,28.40
2017-08-27T13:55:36.277Z,28.40
2017-08-27T13:58:03.929Z,28.90
2017-08-27T14:00:31.639Z,28.20
2017-08-27T14:02:59.896Z,28.20
2017-08-27T14:05:28.852Z,28.20
2017-08-27T14:07:56.586Z,28.20
2017-08-27T14:10:24.272Z,27.90
2017-08-27T14:12:52.330Z,27.90
2017-08-27T14:15:21.758Z,27.90
2017-08-27T14:17:49.368Z,28.10
2017-08-27T14:20:17.141Z,28.30
2017-08-27T14:22:44.776Z,28.00
2017-08-27T14:25:12.579Z,28.00
2017-08-27T14:27:44.501Z,27.60
2017-08-27T14:30:26.436Z,27.20
2017-08-27T14:33:20.671Z,27.00
2017-08-27T14:35:50.285Z,27.20
2017-08-27T14:38:18.771Z,27.70
2017-08-27T14:40:47.819Z,27.70
2017-08-27T14:43:15.610Z,27.50
2017-08-27T14:45:43.295Z,27.10
2017-08-27T14:48:12.921Z,26.90
2017-08-27T14:50:40.549Z,26.80
2017-08-27T14:53:11.607Z,26.60
2017-08-27T14:55:40.339Z,26.50
2017-08-27T15:03:32.843Z,26.70
2017-08-27T15:06:00.450Z,27.30
2017-08-27T15:08:28.354Z,27.40
2017-08-27T15:10:56.681Z,27.60
2017-08-27T15:13:24.457Z,27.80
2017-08-27T15:15:55.456Z,27.60
2017-08-27T15:18:23.522Z,27.20
2017-08-27T15:20:52.960Z,27.00
2017-08-27T15:23:26.575Z,26.70
2017-08-27T15:26:07.807Z,26.60
2017-08-27T15:28:36.388Z,26.50
2017-08-27T15:31:04.055Z,26.40
2017-08-27T15:33:31.891Z,26.20
2017-08-27T15:36:01.484Z,25.50
2017-08-27T15:38:29.172Z,25.20
2017-08-27T15:40:57.321Z,24.90
2017-08-27T15:43:25.044Z,24.70
2017-08-27T15:45:52.746Z,24.80
2017-08-27T15:48:22.975Z,24.60
2017-08-27T15:50:50.932Z,24.40
2017-08-27T15:56:19.682Z,23.90
2017-08-27T15:58:48.262Z,23.90
2017-08-27T16:04:06.577Z,23.60
2017-08-27T16:06:34.365Z,23.40
2017-08-27T16:09:07.827Z,23.20
2017-08-27T16:11:35.580Z,23.10
2017-08-27T16:14:03.445Z,22.90
2017-08-27T16:16:31.067Z,22.80
2017-08-27T16:18:58.744Z,22.70
2017-08-27T16:21:26.496Z,22.60
2017-08-27T16:23:54.142Z,22.40
2017-08-27T16:26:22.912Z,22.40
2017-08-27T16:28:50.644Z,22.50
2017-08-27T16:31:18.398Z,22.70
2017-08-27T16:33:46.635Z,22.80
2017-08-27T16:36:14.374Z,23.00
2017-08-27T16:38:42.150Z,23.10
2017-08-27T16:41:10.073Z,22.90
2017-08-27T16:43:37.800Z,23.10
2017-08-27T16:46:05.460Z,23.10
2017-08-27T16:48:33.138Z,23.10
2017-08-27T16:51:00.810Z,23.00
2017-08-27T16:53:30.232Z,22.70
2017-08-27T16:55:57.949Z,22.80
2017-08-27T16:58:25.579Z,22.60
2017-08-27T17:00:54.227Z,22.60
2017-08-27T17:03:21.901Z,22.70
2017-08-27T17:05:49.580Z,22.70
2017-08-27T17:08:17.260Z,22.70
2017-08-27T17:10:44.953Z,22.70
2017-08-27T17:13:13.136Z,22.70
2017-08-27T17:15:40.752Z,22.60
2017-08-27T17:18:08.407Z,22.50
2017-08-27T17:20:36.953Z,22.20
2017-08-27T17:23:04.671Z,22.20
2017-08-27T17:25:32.711Z,22.20
2017-08-27T17:28:00.355Z,22.30
2017-08-27T17:30:34.171Z,22.30
2017-08-27T17:33:01.883Z,22.10
2017-08-27T17:35:29.870Z,22.00
2017-08-27T17:37:57.656Z,22.10
2017-08-27T17:40:25.343Z,22.00
2017-08-27T17:42:53.009Z,21.80
2017-08-27T17:45:21.470Z,21.80
2017-08-27T17:47:49.134Z,21.60
2017-08-27T17:50:17.853Z,21.30
2017-08-27T17:52:45.567Z,21.10
2017-08-27T17:55:13.459Z,21.20
2017-08-27T17:57:41.095Z,21.10
2017-08-27T18:00:08.775Z,20.60
2017-08-27T18:02:38.684Z,20.60
2017-08-27T18:05:06.556Z,20.60
2017-08-27T18:07:34.192Z,20.60
2017-08-27T18:10:01.820Z,20.70
2017-08-27T18:12:29.433Z,20.60
2017-08-27T18:14:57.925Z,20.50
2017-08-27T18:17:25.716Z,20.40
2017-08-27T18:19:54.172Z,19.90
2017-08-27T18:22:22.110Z,19.80
2017-08-27T18:24:51.185Z,20.00
2017-08-27T18:27:18.904Z,20.00
2017-08-27T18:29:46.590Z,19.90
2017-08-27T18:32:14.337Z,19.70
2017-08-27T18:34:41.980Z,19.60
2017-08-27T18:37:09.982Z,19.50
2017-08-27T18:39:42.148Z,19.40
2017-08-27T18:42:10.981Z,19.20
2017-08-27T18:44:40.142Z,19.30
2017-08-27T18:47:07.785Z,19.30
2017-08-27T18:49:35.425Z,19.30
2017-08-27T18:52:03.183Z,19.30
2017-08-27T18:54:30.945Z,19.20
2017-08-27T18:56:59.549Z,19.20
2017-08-27T18:59:27.229Z,19.10
2017-08-27T19:01:54.885Z,18.80
2017-08-27T19:04:22.494Z,18.80
2017-08-27T19:06:52.288Z,18.70
2017-08-27T19:09:20.103Z,18.60
2017-08-27T19:11:47.744Z,18.70
2017-08-27T19:14:15.509Z,18.80
2017-08-27T19:16:43.154Z,18.70
2017-08-27T19:19:10.817Z,18.60
2017-08-27T19:21:38.520Z,18.70
2017-08-27T19:24:06.629Z,18.70
2017-08-27T19:26:34.473Z,18.80
2017-08-27T19:29:02.752Z,18.70
2017-08-27T19:31:30.505Z,18.70
2017-08-27T19:33:58.123Z,18.40
2017-08-27T19:36:25.721Z,18.30
2017-08-27T19:38:53.418Z,18.20
2017-08-27T19:41:21.124Z,18.20
2017-08-27T19:43:48.744Z,18.20
2017-08-27T19:46:16.415Z,18.40
2017-08-27T19:48:44.064Z,18.30
2017-08-27T19:51:11.957Z,18.00
2017-08-27T19:53:39.583Z,18.00
2017-08-27T19:56:07.288Z,18.10
2017-08-27T19:58:34.907Z,18.20
2017-08-27T20:01:02.834Z,18.10
2017-08-27T20:03:30.767Z,17.90
2017-08-27T20:05:58.434Z,17.80
2017-08-27T20:08:26.354Z,17.90
2017-08-27T20:10:54.411Z,17.80
2017-08-27T20:15:57.536Z,18.00
2017-08-27T20:18:26.611Z,18.00
2017-08-27T20:20:54.707Z,17.90
2017-08-27T20:23:22.693Z,17.90
2017-08-27T20:25:51.254Z,18.00
2017-08-27T20:28:19.529Z,17.90
2017-08-27T20:30:47.283Z,18.00
2017-08-27T20:33:14.940Z,18.00
2017-08-27T20:35:42.655Z,17.80
2017-08-27T20:38:10.511Z,17.70
2017-08-27T20:40:38.214Z,17.80
2017-08-27T20:43:05.913Z,17.50
2017-08-27T20:45:33.847Z,17.40
2017-08-27T20:48:01.532Z,17.60
2017-08-27T20:50:29.815Z,17.50
2017-08-27T20:52:57.532Z,17.50
2017-08-27T20:55:25.516Z,17.60
2017-08-27T20:57:53.161Z,17.50
2017-08-27T21:00:20.822Z,17.50
2017-08-27T21:02:48.529Z,17.40
2017-08-27T21:05:16.743Z,17.50
2017-08-27T21:07:44.391Z,17.50
2017-08-27T21:10:12.042Z,17.60
2017-08-27T21:12:39.773Z,17.60
2017-08-27T21:15:07.846Z,17.40
2017-08-27T21:17:35.904Z,17.50
2017-08-27T21:20:04.597Z,17.40
2017-08-27T21:22:32.260Z,17.70
2017-08-27T21:25:00.304Z,17.60
2017-08-27T21:27:30.295Z,17.40
2017-08-27T21:29:58.228Z,17.40
2017-08-27T21:32:27.667Z,17.50
2017-08-27T21:34:55.488Z,17.60
2017-08-27T21:37:23.520Z,17.40
2017-08-27T21:39:51.209Z,17.20
2017-08-27T21:42:18.949Z,17.40
2017-08-27T21:44:46.646Z,17.70
2017-08-27T21:47:15.528Z,17.50
2017-08-27T21:49:43.463Z,17.40
2017-08-27T21:52:11.180Z,17.70
2017-08-27T21:54:40.060Z,17.80
2017-08-27T21:57:08.285Z,17.60
2017-08-27T21:59:35.989Z,17.70
2017-08-27T22:02:07.192Z,17.40
2017-08-27T22:04:34.935Z,17.40
2017-08-27T22:07:02.680Z,17.70
2017-08-27T22:09:30.446Z,17.90
2017-08-27T22:11:58.137Z,17.70
2017-08-27T22:14:25.771Z,17.50
2017-08-27T22:16:53.413Z,17.40
2017-08-27T22:19:21.094Z,17.30
2017-08-27T22:21:48.700Z,17.30
2017-08-27T22:24:16.367Z,17.20
2017-08-27T22:26:44.056Z,17.10
2017-08-27T22:29:11.718Z,17.10
2017-08-27T22:31:47.574Z,17.20
2017-08-27T22:34:16.946Z,17.30
2017-08-27T22:36:44.639Z,17.40
2017-08-27T22:39:12.463Z,17.50
2017-08-27T22:41:48.286Z,17.50
2017-08-27T22:44:16.669Z,17.80
2017-08-27T22:46:44.288Z,17.80
2017-08-27T22:49:12.141Z,17.80
2017-08-27T22:51:39.816Z,17.50
2017-08-27T22:54:07.472Z,17.30
2017-08-27T22:56:35.121Z,17.20
2017-08-27T22:59:03.804Z,17.50
2017-08-27T23:01:31.474Z,17.80
2017-08-27T23:03:59.105Z,17.70
2017-08-27T23:06:26.788Z,17.60
2017-08-27T23:08:54.691Z,17.60
2017-08-27T23:11:22.346Z,17.30
2017-08-27T23:13:50.011Z,17.60
2017-08-27T23:16:17.665Z,17.60
2017-08-27T23:18:45.309Z,17.30
2017-08-27T23:21:13.023Z,17.10
2017-08-27T23:23:40.653Z,17.20
2017-08-27T23:26:08.316Z,17.50
2017-08-27T23:28:36.003Z,17.70
2017-08-27T23:31:03.694Z,17.70
2017-08-27T23:33:31.352Z,17.80
2017-08-27T23:35:59.075Z,17.90
2017-08-27T23:38:26.699Z,17.80
2017-08-27T23:40:54.339Z,17.40
2017-08-27T23:43:22.003Z,17.30
2017-08-27T23:45:49.647Z,17.10
2017-08-27T23:48:17.309Z,17.10
2017-08-27T23:50:44.942Z,17.00
2017-08-27T23:53:12.614Z,17.20
2017-08-27T23:55:40.258Z,17.40
2017-08-27T23:58:07.978Z,17.40
